Time;durP1;ratioP1;P1;durP2;ratioP2;P2;SDS_P1;SDS_P2;PMS_P1;PMS_P2;Temp;Humidity;BMP_temperature;BMP_pressure;BME280_temperature;BME280_humidity;BME280_pressure;Samples;Min_cycle;Max_cycle;Signal;HPM_P1;HPM_P2
2021/07/08 00:01:58;;;;;;;9.88;6.82;;;16.10;99.90;;;;;;5032938;28;20026;-71
2021/07/08 00:04:24;;;;;;;7.32;5.63;;;16.10;99.90;;;;;;5033484;28;20013;-71
2021/07/08 00:06:52;;;;;;;8.70;6.45;;;16.10;99.90;;;;;;5033591;28;20034;-72
2021/07/08 00:09:18;;;;;;;8.02;6.53;;;16.10;99.90;;;;;;5033625;28;20029;-72
2021/07/08 00:11:43;;;;;;;6.45;5.72;;;16.00;99.90;;;;;;5033325;28;20026;-72
2021/07/08 00:14:09;;;;;;;6.55;5.93;;;16.00;99.90;;;;;;5033590;28;20031;-72
2021/07/08 00:16:38;;;;;;;5.68;5.15;;;16.00;99.90;;;;;;5032923;28;20018;-71
2021/07/08 00:19:08;;;;;;;8.27;6.00;;;16.00;99.90;;;;;;5015335;28;20021;-70
2021/07/08 00:21:34;;;;;;;7.13;5.75;;;16.00;99.90;;;;;;5033474;28;20033;-71
2021/07/08 00:23:59;;;;;;;7.53;6.22;;;16.00;99.90;;;;;;5032782;28;20029;-70
2021/07/08 00:26:25;;;;;;;9.30;6.30;;;16.00;99.90;;;;;;5033168;28;20038;-70
2021/07/08 00:28:53;;;;;;;9.70;6.43;;;15.90;99.90;;;;;;5032768;28;20022;-71
2021/07/08 00:31:20;;;;;;;7.65;6.70;;;15.90;99.90;;;;;;5032821;28;20021;-71
2021/07/08 00:33:47;;;;;;;7.25;6.50;;;15.80;99.90;;;;;;5033102;28;20065;-71
2021/07/08 00:36:13;;;;;;;7.50;6.60;;;15.80;99.90;;;;;;5033032;28;20033;-72
2021/07/08 00:38:38;;;;;;;8.48;6.60;;;15.80;99.90;;;;;;5032647;28;20029;-71
2021/07/08 00:41:04;;;;;;;10.20;7.30;;;15.80;99.90;;;;;;5032924;28;20040;-72
2021/07/08 00:43:31;;;;;;;11.20;7.05;;;15.70;99.90;;;;;;5032648;28;20095;-71
2021/07/08 00:45:58;;;;;;;11.32;6.88;;;15.80;99.90;;;;;;5032486;28;20037;-72
2021/07/08 00:48:24;;;;;;;11.60;7.07;;;15.70;99.90;;;;;;5033276;28;20026;-72
2021/07/08 00:50:50;;;;;;;9.60;6.63;;;15.70;99.90;;;;;;5031981;28;20021;-72
2021/07/08 00:53:18;;;;;;;15.90;7.95;;;15.70;99.90;;;;;;5033076;28;20081;-71
2021/07/08 00:55:46;;;;;;;11.02;7.18;;;15.70;99.90;;;;;;5032482;28;20068;-72
2021/07/08 00:58:16;;;;;;;14.00;7.45;;;15.60;99.90;;;;;;5031757;28;20134;-72
2021/07/08 01:00:42;;;;;;;13.10;8.30;;;15.60;99.90;;;;;;5032904;28;20039;-71
2021/07/08 01:03:10;;;;;;;8.23;7.43;;;15.60;99.90;;;;;;5032156;28;20020;-72
2021/07/08 01:05:39;;;;;;;8.93;8.10;;;15.60;99.90;;;;;;5032112;28;20026;-72
2021/07/08 01:08:05;;;;;;;8.40;7.53;;;15.50;99.90;;;;;;5031946;28;20029;-71
2021/07/08 01:10:31;;;;;;;11.68;7.53;;;15.50;99.90;;;;;;5032623;28;20027;-71
2021/07/08 01:12:58;;;;;;;9.32;7.68;;;15.50;99.90;;;;;;5031772;28;20029;-70
2021/07/08 01:15:25;;;;;;;17.02;9.52;;;15.50;99.90;;;;;;5034690;28;20040;-72
2021/07/08 01:17:50;;;;;;;8.95;8.05;;;15.50;99.90;;;;;;5040386;28;20039;-72
2021/07/08 01:20:18;;;;;;;11.25;7.93;;;15.50;99.90;;;;;;5022020;28;20025;-74
2021/07/08 01:22:44;;;;;;;12.48;8.50;;;15.50;99.90;;;;;;5032922;28;20488;-71
2021/07/08 01:25:12;;;;;;;10.95;7.93;;;15.60;99.90;;;;;;5031410;28;20030;-71
2021/07/08 01:27:44;;;;;;;8.07;7.20;;;15.60;99.90;;;;;;5031822;28;20065;-71
2021/07/08 01:30:12;;;;;;;11.07;7.88;;;16.00;99.90;;;;;;5032442;28;20017;-71
2021/07/08 01:32:38;;;;;;;9.38;8.05;;;15.70;99.90;;;;;;5032133;28;20108;-71
2021/07/08 01:35:06;;;;;;;10.45;8.45;;;15.70;99.90;;;;;;5031396;28;20031;-71
2021/07/08 01:37:32;;;;;;;10.15;9.02;;;15.70;99.90;;;;;;5032054;28;20071;-71
2021/07/08 01:40:00;;;;;;;9.27;8.40;;;15.70;99.90;;;;;;5031144;28;20041;-72
2021/07/08 01:42:28;;;;;;;10.98;8.55;;;15.70;99.90;;;;;;5032269;28;20068;-71
2021/07/08 01:44:53;;;;;;;12.50;9.10;;;15.70;99.90;;;;;;5031795;28;20488;-72
2021/07/08 01:47:20;;;;;;;10.40;9.38;;;15.70;99.90;;;;;;5031326;28;20041;-72
2021/07/08 01:49:46;;;;;;;9.93;8.93;;;15.60;99.90;;;;;;5031756;28;20376;-71
2021/07/08 01:52:11;;;;;;;10.52;9.52;;;15.70;99.90;;;;;;5032219;28;20104;-71
2021/07/08 01:54:37;;;;;;;13.95;10.32;;;15.70;99.90;;;;;;5031227;28;20077;-71
2021/07/08 01:57:03;;;;;;;14.65;9.40;;;15.80;99.90;;;;;;5031437;28;20060;-71
2021/07/08 01:59:28;;;;;;;16.02;10.10;;;15.80;99.90;;;;;;5031646;28;20040;-71
2021/07/08 02:01:54;;;;;;;14.18;9.27;;;15.90;99.90;;;;;;5031118;28;20029;-71
2021/07/08 02:04:19;;;;;;;11.43;9.05;;;16.00;99.90;;;;;;5031907;28;20029;-71
2021/07/08 02:06:45;;;;;;;17.35;10.60;;;16.00;99.90;;;;;;5031214;28;20068;-71
2021/07/08 02:09:11;;;;;;;16.70;10.18;;;16.00;99.90;;;;;;5031425;28;20021;-71
2021/07/08 02:11:37;;;;;;;20.50;11.40;;;16.10;99.90;;;;;;5031717;28;20026;-71
2021/07/08 02:14:03;;;;;;;15.98;10.00;;;16.10;99.90;;;;;;5031746;28;20072;-71
2021/07/08 02:16:28;;;;;;;10.77;9.27;;;16.20;99.90;;;;;;5031134;28;20534;-71
2021/07/08 02:18:54;;;;;;;10.48;9.38;;;16.20;99.90;;;;;;5031633;28;20095;-71
2021/07/08 02:21:19;;;;;;;17.63;10.15;;;16.20;99.90;;;;;;5031712;28;20499;-72
2021/07/08 02:23:46;;;;;;;10.70;9.18;;;16.20;99.90;;;;;;5030924;28;20029;-71
2021/07/08 02:26:11;;;;;;;17.98;9.27;;;16.20;99.90;;;;;;5031952;28;20036;-71
2021/07/08 02:28:38;;;;;;;10.65;9.48;;;16.20;99.90;;;;;;5031712;28;20034;-71
2021/07/08 02:31:05;;;;;;;12.63;9.38;;;16.20;99.90;;;;;;5031103;28;20105;-72
2021/07/08 02:33:32;;;;;;;10.90;9.90;;;16.10;99.90;;;;;;5031211;28;20477;-71
2021/07/08 02:35:58;;;;;;;15.27;10.02;;;16.10;99.90;;;;;;5031318;28;20021;-70
2021/07/08 02:38:24;;;;;;;10.90;9.38;;;16.10;99.90;;;;;;5033709;28;20030;-71
2021/07/08 02:40:50;;;;;;;13.82;9.75;;;16.10;99.90;;;;;;5035911;28;20018;-71
2021/07/08 02:43:16;;;;;;;13.10;9.85;;;16.00;99.90;;;;;;5035915;28;20061;-71
2021/07/08 02:45:42;;;;;;;11.00;9.35;;;16.00;99.90;;;;;;5017656;28;20022;-71
2021/07/08 02:48:11;;;;;;;14.02;9.82;;;16.00;99.90;;;;;;5035360;28;20044;-70
2021/07/08 02:50:44;;;;;;;10.27;9.27;;;15.90;99.90;;;;;;5034540;28;20358;-70
2021/07/08 02:53:10;;;;;;;9.73;8.63;;;15.90;99.90;;;;;;5035265;28;20113;-71
2021/07/08 02:55:40;;;;;;;10.90;9.80;;;15.80;99.90;;;;;;5034734;28;20025;-71
2021/07/08 02:58:05;;;;;;;19.30;9.25;;;15.80;99.90;;;;;;5034012;28;20527;-71
2021/07/08 03:00:31;;;;;;;11.95;9.57;;;15.80;99.90;;;;;;5034902;28;20116;-71
2021/07/08 03:02:57;;;;;;;13.07;9.70;;;15.70;99.90;;;;;;5034571;28;20025;-72
2021/07/08 03:05:23;;;;;;;13.43;10.65;;;15.70;99.90;;;;;;5034476;28;20029;-73
2021/07/08 03:07:49;;;;;;;13.27;10.07;;;15.70;99.90;;;;;;5034474;28;20026;-70
2021/07/08 03:10:17;;;;;;;12.45;9.88;;;15.60;99.90;;;;;;5034896;28;20057;-70
2021/07/08 03:12:43;;;;;;;13.30;9.88;;;15.60;99.90;;;;;;5033988;28;20029;-71
2021/07/08 03:15:13;;;;;;;13.70;10.80;;;15.50;99.90;;;;;;5034755;28;20029;-71
2021/07/08 03:17:39;;;;;;;12.23;9.40;;;15.50;99.90;;;;;;5034307;28;20018;-71
2021/07/08 03:20:12;;;;;;;13.00;9.93;;;15.50;99.90;;;;;;5033692;28;20404;-71
2021/07/08 03:22:39;;;;;;;11.68;9.95;;;15.50;99.90;;;;;;5034829;28;20105;-70
2021/07/08 03:25:06;;;;;;;16.77;10.00;;;15.40;99.90;;;;;;5034087;28;20034;-72
2021/07/08 03:27:31;;;;;;;14.40;9.90;;;15.40;99.90;;;;;;5033738;28;20492;-71
2021/07/08 03:29:57;;;;;;;16.63;10.93;;;15.40;99.90;;;;;;5033994;28;20037;-71
2021/07/08 03:32:23;;;;;;;11.80;10.68;;;15.40;99.90;;;;;;5033898;28;20053;-72
2021/07/08 03:34:48;;;;;;;14.63;10.95;;;15.50;99.90;;;;;;5033501;28;20022;-73
2021/07/08 03:37:14;;;;;;;11.38;10.18;;;15.50;99.90;;;;;;5034486;28;20021;-71
2021/07/08 03:39:40;;;;;;;15.95;11.25;;;15.50;99.90;;;;;;5033607;28;20048;-72
2021/07/08 03:42:05;;;;;;;11.48;9.88;;;15.60;99.90;;;;;;5033874;28;21507;-71
2021/07/08 03:44:31;;;;;;;10.18;8.82;;;15.60;99.90;;;;;;5034053;28;20025;-73
2021/07/08 03:46:56;;;;;;;15.07;10.77;;;15.60;99.90;;;;;;5033060;28;20037;-71
2021/07/08 03:49:22;;;;;;;12.35;10.05;;;15.60;99.90;;;;;;5033905;28;20033;-71
2021/07/08 03:51:49;;;;;;;11.60;10.38;;;15.70;99.90;;;;;;5033615;28;20077;-70
2021/07/08 03:54:14;;;;;;;18.95;10.82;;;15.70;99.90;;;;;;5033364;28;20057;-71
2021/07/08 03:56:40;;;;;;;10.80;9.80;;;15.80;99.90;;;;;;5033888;28;20037;-71
2021/07/08 03:59:05;;;;;;;11.90;10.07;;;15.80;99.90;;;;;;5033226;28;20049;-70
2021/07/08 04:01:31;;;;;;;13.60;10.32;;;15.80;99.90;;;;;;5033270;28;20025;-71
2021/07/08 04:03:56;;;;;;;11.20;10.07;;;15.80;99.90;;;;;;5033432;28;20591;-71
2021/07/08 04:06:22;;;;;;;11.75;9.07;;;15.90;99.90;;;;;;5033518;28;20057;-71
2021/07/08 04:08:47;;;;;;;12.13;9.88;;;15.90;99.90;;;;;;5033153;28;20080;-72
2021/07/08 04:11:13;;;;;;;14.25;9.35;;;15.90;99.90;;;;;;5033391;28;20097;-71
2021/07/08 04:13:38;;;;;;;11.45;9.82;;;16.00;99.90;;;;;;5033507;28;20033;-72
2021/07/08 04:16:04;;;;;;;13.00;9.68;;;16.00;99.90;;;;;;5032934;28;20047;-72
2021/07/08 04:18:30;;;;;;;12.20;10.02;;;16.00;99.90;;;;;;5033631;28;20112;-70
2021/07/08 04:20:55;;;;;;;14.98;10.27;;;16.10;99.90;;;;;;5033279;28;20087;-70
2021/07/08 04:23:21;;;;;;;14.32;9.75;;;16.10;99.90;;;;;;5032849;28;20026;-70
2021/07/08 04:25:47;;;;;;;12.45;9.52;;;16.10;99.90;;;;;;5033238;28;20026;-71
2021/07/08 04:28:13;;;;;;;13.82;9.90;;;16.10;99.90;;;;;;5032853;28;20034;-71
2021/07/08 04:30:43;;;;;;;10.15;9.07;;;16.20;99.90;;;;;;5033074;28;20376;-73
2021/07/08 04:33:08;;;;;;;15.05;9.68;;;16.20;99.90;;;;;;5033595;28;20384;-71
2021/07/08 04:35:40;;;;;;;12.88;9.90;;;16.30;99.90;;;;;;5032905;28;20014;-72
2021/07/08 04:38:08;;;;;;;17.63;10.10;;;16.30;99.90;;;;;;5032932;28;20025;-71
2021/07/08 04:40:35;;;;;;;19.35;10.05;;;16.30;99.90;;;;;;5032985;28;20025;-71
2021/07/08 04:43:01;;;;;;;17.58;9.82;;;16.30;99.90;;;;;;5032160;28;20029;-71
2021/07/08 04:45:27;;;;;;;10.57;9.57;;;16.30;99.90;;;;;;5032799;28;20041;-71
2021/07/08 04:47:52;;;;;;;14.40;10.70;;;16.40;99.90;;;;;;5032813;28;20504;-72
2021/07/08 04:50:20;;;;;;;12.32;9.23;;;16.40;99.90;;;;;;5033278;28;20083;-70
2021/07/08 04:52:47;;;;;;;12.05;9.85;;;16.40;99.90;;;;;;5032876;28;20164;-72
2021/07/08 04:55:14;;;;;;;12.80;9.23;;;16.40;99.90;;;;;;5032809;28;20040;-71
2021/07/08 04:57:40;;;;;;;12.82;9.55;;;16.50;99.90;;;;;;5031255;28;20106;-71
2021/07/08 05:00:09;;;;;;;13.07;9.15;;;16.50;99.90;;;;;;5031723;28;20524;-70
2021/07/08 05:02:41;;;;;;;16.38;9.13;;;16.50;99.90;;;;;;5032511;28;20017;-71
2021/07/08 05:05:09;;;;;;;12.52;9.38;;;16.60;99.90;;;;;;5032177;28;20028;-71
2021/07/08 05:07:35;;;;;;;16.25;8.85;;;16.60;99.90;;;;;;5032634;28;20033;-72
2021/07/08 05:10:01;;;;;;;13.95;9.48;;;16.70;99.90;;;;;;5032630;28;20028;-71
2021/07/08 05:12:27;;;;;;;10.88;9.77;;;16.70;99.90;;;;;;5032164;28;20026;-71
2021/07/08 05:14:53;;;;;;;13.00;8.43;;;16.70;99.90;;;;;;5032008;28;20075;-71
2021/07/08 05:17:19;;;;;;;18.63;9.48;;;16.70;99.90;;;;;;5032294;28;20061;-71
2021/07/08 05:19:45;;;;;;;15.05;9.27;;;16.80;99.90;;;;;;5031619;28;20056;-72
2021/07/08 05:22:10;;;;;;;15.65;9.45;;;16.90;99.90;;;;;;5032438;28;20045;-71
2021/07/08 05:24:37;;;;;;;11.18;8.75;;;16.90;99.90;;;;;;5032226;28;20032;-71
2021/07/08 05:27:03;;;;;;;13.02;9.65;;;17.00;99.90;;;;;;5031265;28;20488;-71
2021/07/08 05:29:30;;;;;;;13.40;9.18;;;17.00;99.90;;;;;;5032473;28;20025;-71
2021/07/08 05:31:56;;;;;;;13.50;9.30;;;17.10;99.90;;;;;;5031762;28;20029;-71
2021/07/08 05:34:21;;;;;;;9.38;8.38;;;17.20;99.90;;;;;;5032114;28;20044;-71
2021/07/08 05:36:47;;;;;;;10.20;8.70;;;17.30;99.90;;;;;;5031839;28;20041;-72
2021/07/08 05:39:13;;;;;;;11.82;9.65;;;17.40;99.90;;;;;;5031579;28;20376;-72
2021/07/08 05:41:39;;;;;;;15.07;9.60;;;17.40;99.90;;;;;;5032199;28;20033;-72
2021/07/08 05:44:05;;;;;;;16.02;9.55;;;17.50;99.90;;;;;;5031882;28;20025;-71
2021/07/08 05:46:30;;;;;;;19.30;9.18;;;17.50;99.90;;;;;;5031923;28;20361;-71
2021/07/08 05:48:56;;;;;;;17.98;7.88;;;17.60;99.90;;;;;;5020458;28;20041;-72
2021/07/08 05:51:21;;;;;;;20.02;8.45;;;17.60;99.90;;;;;;5021450;28;20041;-73
2021/07/08 05:53:47;;;;;;;12.75;7.95;;;17.60;99.90;;;;;;5022841;28;20049;-71
2021/07/08 05:56:12;;;;;;;14.88;7.68;;;17.70;99.90;;;;;;5019160;28;20055;-71
2021/07/08 05:58:38;;;;;;;12.57;6.63;;;17.70;99.90;;;;;;5012906;28;20065;-71
2021/07/08 06:01:04;;;;;;;9.32;7.30;;;17.80;99.90;;;;;;5016811;28;20030;-72
2021/07/08 06:03:29;;;;;;;9.65;7.35;;;17.80;99.90;;;;;;5012691;28;20419;-72
2021/07/08 06:05:55;;;;;;;10.18;7.53;;;17.90;99.90;;;;;;5013722;28;20477;-70
2021/07/08 06:08:20;;;;;;;10.50;7.68;;;18.00;99.90;;;;;;5015338;28;20156;-71
2021/07/08 06:10:46;;;;;;;7.85;6.47;;;18.10;99.90;;;;;;5013015;28;20026;-71
2021/07/08 06:13:11;;;;;;;9.73;6.93;;;18.20;99.90;;;;;;5019690;28;20543;-71
2021/07/08 06:15:38;;;;;;;8.35;7.38;;;18.20;99.90;;;;;;5016839;28;20473;-70
2021/07/08 06:18:04;;;;;;;8.90;7.32;;;18.30;99.90;;;;;;5018612;28;20113;-71
2021/07/08 06:20:30;;;;;;;8.27;7.45;;;18.40;99.90;;;;;;5016634;28;20026;-71
2021/07/08 06:22:56;;;;;;;11.38;7.13;;;18.40;99.90;;;;;;5016145;28;20034;-72
2021/07/08 06:25:23;;;;;;;10.55;7.07;;;18.40;99.90;;;;;;5032324;28;20022;-71
2021/07/08 06:27:49;;;;;;;12.05;7.25;;;18.50;99.90;;;;;;5034869;28;20087;-71
2021/07/08 06:30:15;;;;;;;11.48;7.50;;;18.60;99.90;;;;;;5033452;28;20029;-71
2021/07/08 06:32:41;;;;;;;9.63;7.22;;;18.60;99.90;;;;;;5036115;28;20029;-71
2021/07/08 06:35:08;;;;;;;11.80;6.40;;;18.70;99.90;;;;;;5034489;28;20024;-71
2021/07/08 06:37:35;;;;;;;11.90;6.75;;;18.80;99.90;;;;;;5034621;28;20030;-71
2021/07/08 06:40:00;;;;;;;9.85;5.68;;;18.80;99.90;;;;;;5034632;28;20100;-72
2021/07/08 06:42:26;;;;;;;6.05;5.43;;;18.90;99.90;;;;;;5034107;28;20572;-72
2021/07/08 06:44:51;;;;;;;5.90;5.10;;;18.90;99.90;;;;;;5034184;28;20040;-71
2021/07/08 06:47:19;;;;;;;6.88;5.18;;;18.90;99.90;;;;;;5033753;28;20048;-72
2021/07/08 06:49:45;;;;;;;7.55;6.03;;;18.90;99.90;;;;;;5025969;28;20032;-73
2021/07/08 06:52:12;;;;;;;7.82;6.53;;;18.90;99.90;;;;;;5033685;28;20025;-72
2021/07/08 06:54:38;;;;;;;9.65;6.68;;;18.90;99.90;;;;;;5031923;28;20025;-73
2021/07/08 06:57:04;;;;;;;13.48;6.78;;;19.00;99.90;;;;;;5032256;28;20049;-74
2021/07/08 06:59:30;;;;;;;9.82;7.28;;;18.90;99.90;;;;;;5031271;28;20022;-74
2021/07/08 07:01:55;;;;;;;10.38;7.20;;;18.80;99.90;;;;;;5032931;28;20020;-74
2021/07/08 07:04:21;;;;;;;7.13;6.43;;;18.80;99.90;;;;;;5033460;28;20079;-74
2021/07/08 07:06:50;;;;;;;6.93;4.60;;;18.80;99.90;;;;;;5033732;28;20075;-74
2021/07/08 07:09:15;;;;;;;6.00;5.18;;;18.70;99.90;;;;;;5033134;28;20116;-74
2021/07/08 07:11:41;;;;;;;11.70;6.75;;;18.80;99.90;;;;;;5030863;28;20438;-73
2021/07/08 07:14:06;;;;;;;10.23;7.43;;;18.90;99.90;;;;;;5034667;28;20025;-73
2021/07/08 07:16:32;;;;;;;8.82;7.07;;;18.90;99.90;;;;;;5033888;28;20021;-74
2021/07/08 07:18:58;;;;;;;6.88;6.28;;;18.90;99.90;;;;;;5032740;28;20076;-73
2021/07/08 07:21:23;;;;;;;8.95;7.45;;;19.00;99.90;;;;;;5034665;28;20060;-72
2021/07/08 07:23:49;;;;;;;13.60;7.60;;;19.00;99.90;;;;;;5033378;28;20029;-73
2021/07/08 07:26:19;;;;;;;10.15;8.63;;;18.90;99.90;;;;;;5032608;28;20061;-72
2021/07/08 07:28:45;;;;;;;12.57;8.13;;;18.90;99.90;;;;;;5026994;28;20493;-73
2021/07/08 07:31:11;;;;;;;12.13;8.35;;;18.90;99.90;;;;;;5026962;28;20064;-73
2021/07/08 07:33:36;;;;;;;11.55;6.30;;;19.00;99.90;;;;;;5020030;28;20495;-73
2021/07/08 07:36:03;;;;;;;9.95;7.28;;;19.00;99.90;;;;;;5029742;28;20347;-73
2021/07/08 07:38:28;;;;;;;6.78;6.07;;;18.90;99.90;;;;;;5034393;28;20530;-75
2021/07/08 07:40:55;;;;;;;8.40;5.80;;;19.00;99.90;;;;;;5033367;28;20041;-74
2021/07/08 07:43:22;;;;;;;7.45;6.43;;;19.00;99.90;;;;;;5034093;28;20033;-74
2021/07/08 07:45:49;;;;;;;6.95;6.05;;;19.10;99.90;;;;;;5033004;28;20550;-74
2021/07/08 07:48:15;;;;;;;6.43;4.53;;;19.00;99.90;;;;;;5032917;28;20493;-72
2021/07/08 07:50:41;;;;;;;6.97;4.68;;;19.30;99.90;;;;;;5033487;28;20029;-74
2021/07/08 07:53:07;;;;;;;4.25;3.85;;;19.20;99.90;;;;;;5033622;28;20021;-73
2021/07/08 07:55:33;;;;;;;8.65;4.05;;;19.30;99.90;;;;;;5034352;28;20060;-76
2021/07/08 07:58:00;;;;;;;7.28;3.88;;;19.30;99.90;;;;;;5035057;28;20412;-75
2021/07/08 08:00:28;;;;;;;6.55;4.28;;;19.30;99.90;;;;;;5044420;28;20442;-75
2021/07/08 08:02:54;;;;;;;6.18;4.45;;;19.40;99.90;;;;;;5047009;28;20099;-76
2021/07/08 08:05:34;;;;;;;9.02;4.72;;;19.50;99.90;;;;;;5047462;28;20032;-75
2021/07/08 08:10:48;;;;;;;5.18;4.15;;;19.60;99.90;;;;;;5046119;28;20071;-76
2021/07/08 08:13:14;;;;;;;7.47;4.80;;;19.60;99.90;;;;;;5051307;28;20032;-76
2021/07/08 08:15:40;;;;;;;7.03;3.90;;;19.60;99.90;;;;;;5050135;28;20029;-72
2021/07/08 08:18:05;;;;;;;4.47;3.75;;;19.60;99.90;;;;;;5051014;28;20039;-75
2021/07/08 08:20:31;;;;;;;4.97;4.50;;;19.60;99.90;;;;;;5049163;28;20114;-74
2021/07/08 08:22:57;;;;;;;8.00;4.43;;;19.60;99.90;;;;;;5053074;28;20036;-73
2021/07/08 08:25:23;;;;;;;4.68;3.97;;;19.60;99.90;;;;;;5048263;28;20032;-76
2021/07/08 08:27:49;;;;;;;10.63;3.80;;;19.70;99.90;;;;;;5050980;28;20037;-78
2021/07/08 08:30:15;;;;;;;4.20;3.80;;;19.70;99.90;;;;;;5043763;28;20472;-76
2021/07/08 08:32:41;;;;;;;5.68;4.43;;;19.80;99.90;;;;;;5040984;28;20358;-78
2021/07/08 08:35:08;;;;;;;5.82;3.78;;;19.90;99.90;;;;;;5041300;28;20037;-77
2021/07/08 08:37:34;;;;;;;5.88;4.40;;;20.10;99.90;;;;;;5035946;28;20548;-79
2021/07/08 08:40:00;;;;;;;5.32;4.05;;;20.30;99.90;;;;;;5034615;28;20025;-77
2021/07/08 08:42:27;;;;;;;4.35;3.85;;;20.40;99.90;;;;;;5029055;28;20531;-78
2021/07/08 08:44:56;;;;;;;7.03;3.75;;;20.50;99.90;;;;;;5041422;28;20025;-75
2021/07/08 08:47:22;;;;;;;5.15;3.72;;;20.60;99.90;;;;;;5028150;28;20102;-72
2021/07/08 08:49:48;;;;;;;5.25;3.80;;;20.70;99.90;;;;;;5032152;28;20384;-74
2021/07/08 08:52:17;;;;;;;10.05;4.10;;;20.90;99.90;;;;;;5003409;28;20037;-77
2021/07/08 08:54:43;;;;;;;5.47;3.72;;;21.10;99.90;;;;;;5032176;28;20083;-75
2021/07/08 08:57:09;;;;;;;4.55;3.60;;;21.30;99.90;;;;;;5030132;28;20064;-74
2021/07/08 08:59:35;;;;;;;6.55;4.13;;;21.10;99.90;;;;;;5031056;28;20029;-75
2021/07/08 09:02:13;;;;;;;4.32;3.92;;;21.00;99.90;;;;;;5042025;28;20029;-75
2021/07/08 09:04:40;;;;;;;4.38;3.30;;;21.00;99.90;;;;;;5032754;28;20361;-76
2021/07/08 09:07:30;;;;;;;4.50;4.03;;;21.10;99.90;;;;;;5033134;28;20087;-74
2021/07/08 09:09:58;;;;;;;6.95;4.30;;;21.20;99.90;;;;;;5023451;28;20377;-74
2021/07/08 09:12:27;;;;;;;4.88;3.10;;;21.40;99.90;;;;;;5032369;28;20021;-74
2021/07/08 09:15:13;;;;;;;5.22;4.10;;;21.50;99.90;;;;;;5031886;28;20412;-74
2021/07/08 09:17:40;;;;;;;3.92;3.55;;;21.60;99.90;;;;;;5032252;28;20033;-75
2021/07/08 09:20:12;;;;;;;7.22;3.10;;;21.60;99.90;;;;;;5032099;28;20481;-74
2021/07/08 09:22:39;;;;;;;3.42;3.13;;;21.60;99.90;;;;;;5032739;28;20021;-74
2021/07/08 09:25:21;;;;;;;5.32;3.05;;;21.60;99.90;;;;;;5031449;28;20503;-74
2021/07/08 09:27:48;;;;;;;4.43;3.17;;;21.70;99.90;;;;;;5032008;28;20085;-76
2021/07/08 09:30:24;;;;;;;4.35;3.90;;;21.70;99.90;;;;;;5031959;28;20503;-73
2021/07/08 09:32:53;;;;;;;4.35;3.95;;;21.70;99.90;;;;;;5031475;28;20377;-74
2021/07/08 09:35:37;;;;;;;5.63;4.50;;;21.50;99.90;;;;;;5032237;28;20025;-74
2021/07/08 09:38:22;;;;;;;4.53;3.75;;;21.60;99.90;;;;;;5032169;28;20463;-73
2021/07/08 09:41:07;;;;;;;7.35;4.38;;;21.80;99.90;;;;;;5032225;28;20108;-74
2021/07/08 09:43:34;;;;;;;4.90;4.40;;;21.80;99.90;;;;;;5032221;28;20116;-74
2021/07/08 09:45:59;;;;;;;4.72;3.65;;;21.70;99.90;;;;;;5013299;28;20048;-74
2021/07/08 09:48:25;;;;;;;4.68;3.30;;;21.90;99.90;;;;;;5032172;28;20037;-73
2021/07/08 09:50:51;;;;;;;4.68;3.65;;;22.10;99.90;;;;;;5031457;28;20024;-75
2021/07/08 09:53:19;;;;;;;5.53;3.67;;;22.30;99.90;;;;;;5031473;28;20022;-75
2021/07/08 09:58:31;;;;;;;4.25;3.17;;;22.80;99.90;;;;;;5031758;28;20519;-74
2021/07/08 10:00:57;;;;;;;4.63;2.20;;;23.10;99.90;;;;;;5031157;28;20025;-75
2021/07/08 10:03:23;;;;;;;3.63;3.33;;;23.20;99.90;;;;;;5032273;28;20025;-75
2021/07/08 10:05:48;;;;;;;6.13;3.00;;;23.40;99.80;;;;;;5031325;28;20021;-73
2021/07/08 10:08:14;;;;;;;5.28;2.88;;;23.40;98.60;;;;;;5031255;28;20087;-73
2021/07/08 10:10:41;;;;;;;3.05;2.38;;;23.40;98.50;;;;;;5031701;28;20044;-73
2021/07/08 10:13:08;;;;;;;3.88;2.17;;;23.50;97.80;;;;;;5027789;28;20025;-74
2021/07/08 10:15:36;;;;;;;6.93;2.65;;;23.50;97.90;;;;;;5031594;28;20025;-74
2021/07/08 10:18:04;;;;;;;4.18;2.10;;;23.60;98.20;;;;;;5031352;28;20037;-73
2021/07/08 10:20:30;;;;;;;3.22;2.10;;;23.90;98.10;;;;;;5031252;28;20032;-73
2021/07/08 10:22:58;;;;;;;2.65;1.80;;;24.00;97.50;;;;;;5031519;28;20032;-74
2021/07/08 10:25:24;;;;;;;2.53;2.00;;;24.20;97.00;;;;;;5031664;28;20025;-73
2021/07/08 10:27:51;;;;;;;2.10;1.95;;;24.20;95.60;;;;;;5030811;28;20049;-75
2021/07/08 10:30:20;;;;;;;3.78;2.35;;;24.30;95.60;;;;;;5031747;28;20025;-74
2021/07/08 10:32:52;;;;;;;3.13;1.92;;;24.40;95.10;;;;;;5031129;28;20378;-74
2021/07/08 10:35:43;;;;;;;4.60;1.90;;;24.30;94.50;;;;;;5030935;28;20025;-75
2021/07/08 10:38:26;;;;;;;2.75;1.80;;;24.30;94.60;;;;;;5031853;28;20033;-75
2021/07/08 10:40:56;;;;;;;2.75;2.08;;;24.20;95.20;;;;;;5018026;28;20029;-75
2021/07/08 10:43:42;;;;;;;1.90;1.80;;;24.50;95.40;;;;;;5031235;28;20047;-75
2021/07/08 10:46:14;;;;;;;2.25;1.98;;;24.70;94.70;;;;;;5019600;28;20041;-74
2021/07/08 10:48:48;;;;;;;3.58;2.00;;;24.80;93.90;;;;;;5031113;28;20037;-75
2021/07/08 10:51:36;;;;;;;1.88;1.75;;;24.80;93.60;;;;;;5031381;28;20435;-74
2021/07/08 10:54:26;;;;;;;2.38;1.60;;;24.90;93.40;;;;;;5030833;28;20047;-74
2021/07/08 10:56:53;;;;;;;4.15;1.90;;;25.00;93.10;;;;;;5030538;28;20409;-74
2021/07/08 10:59:19;;;;;;;2.83;2.45;;;25.10;92.80;;;;;;5033397;28;20459;-74
2021/07/08 11:01:52;;;;;;;3.03;2.55;;;25.20;92.80;;;;;;5034733;28;20108;-75
2021/07/08 11:04:47;;;;;;;4.38;2.10;;;25.20;92.40;;;;;;5034272;28;20017;-73
2021/07/08 11:07:19;;;;;;;2.83;1.75;;;25.20;92.80;;;;;;5034859;28;20033;-73
2021/07/08 11:10:05;;;;;;;2.22;1.80;;;25.20;91.70;;;;;;5020908;28;20071;-74
2021/07/08 11:12:35;;;;;;;2.63;2.00;;;25.00;91.30;;;;;;5034733;28;20029;-74
2021/07/08 11:15:03;;;;;;;2.08;1.70;;;25.00;91.40;;;;;;5034228;28;20063;-74
2021/07/08 11:17:39;;;;;;;4.40;2.20;;;25.10;92.30;;;;;;5034560;28;20022;-74
2021/07/08 11:20:32;;;;;;;3.85;2.15;;;25.10;91.80;;;;;;5016582;28;20013;-74
2021/07/08 11:23:36;;;;;;;10.38;2.30;;;25.30;91.50;;;;;;5034135;28;20030;-73
2021/07/08 11:26:02;;;;;;;2.65;2.05;;;25.50;90.80;;;;;;5025089;28;20377;-73
2021/07/08 11:28:30;;;;;;;2.65;1.85;;;25.70;90.20;;;;;;5034190;28;20033;-74
2021/07/08 11:31:01;;;;;;;4.15;1.95;;;25.60;90.30;;;;;;5033875;28;20036;-75
2021/07/08 11:33:29;;;;;;;2.80;2.10;;;25.70;90.30;;;;;;5034229;28;20155;-74
2021/07/08 11:35:59;;;;;;;4.07;1.83;;;25.60;90.30;;;;;;5033672;28;20026;-75
2021/07/08 11:38:29;;;;;;;2.60;1.98;;;25.70;89.70;;;;;;5033791;28;20021;-75
2021/07/08 11:40:57;;;;;;;4.28;2.22;;;25.90;89.30;;;;;;5033920;28;20029;-75
2021/07/08 11:43:36;;;;;;;2.28;2.00;;;26.00;88.80;;;;;;5034140;28;20032;-75
2021/07/08 11:46:10;;;;;;;4.10;2.05;;;26.00;89.90;;;;;;5020770;28;20025;-74
2021/07/08 11:48:40;;;;;;;2.38;2.10;;;26.10;88.00;;;;;;5034049;28;20064;-74
2021/07/08 11:51:17;;;;;;;6.30;4.00;;;26.00;87.10;;;;;;5034033;28;20025;-72
2021/07/08 11:53:45;;;;;;;6.32;4.75;;;25.80;90.40;;;;;;5033236;28;20163;-74
2021/07/08 11:56:11;;;;;;;4.28;3.92;;;25.70;92.00;;;;;;5034034;28;20022;-75
2021/07/08 11:58:37;;;;;;;4.70;4.30;;;25.40;92.80;;;;;;5033996;28;20045;-75
2021/07/08 12:01:16;;;;;;;5.78;5.10;;;25.10;92.50;;;;;;5033133;28;20024;-74
2021/07/08 12:03:44;;;;;;;6.57;5.32;;;24.80;93.40;;;;;;5034372;28;20040;-74
2021/07/08 12:06:20;;;;;;;5.68;5.18;;;24.70;92.30;;;;;;5033879;28;20040;-73
2021/07/08 12:08:50;;;;;;;4.75;4.07;;;24.50;93.00;;;;;;5033995;28;20041;-74
2021/07/08 12:11:19;;;;;;;5.60;3.88;;;24.60;93.90;;;;;;5039722;28;20450;-74
2021/07/08 12:13:55;;;;;;;5.90;5.32;;;24.80;94.40;;;;;;5039893;28;20025;-75
2021/07/08 12:16:30;;;;;;;7.60;4.85;;;24.80;94.60;;;;;;5034541;28;20481;-74
2021/07/08 12:18:56;;;;;;;9.63;5.22;;;24.70;94.60;;;;;;5033524;28;20473;-74
2021/07/08 12:21:26;;;;;;;6.72;4.45;;;24.50;93.90;;;;;;5033064;28;20120;-74
2021/07/08 12:23:55;;;;;;;5.97;4.65;;;24.40;94.40;;;;;;5033547;28;20041;-74
2021/07/08 12:26:38;;;;;;;5.55;5.05;;;24.60;94.20;;;;;;5033635;28;20029;-74
2021/07/08 12:29:28;;;;;;;6.10;5.10;;;24.70;94.40;;;;;;5020592;28;20022;-74
2021/07/08 12:32:17;;;;;;;7.85;6.68;;;24.80;93.80;;;;;;5033060;28;20481;-74
2021/07/08 12:34:50;;;;;;;6.75;5.97;;;24.90;93.50;;;;;;5033562;28;20042;-74
2021/07/08 12:37:21;;;;;;;7.10;5.05;;;25.10;94.40;;;;;;5033298;28;20503;-73
2021/07/08 12:39:53;;;;;;;5.68;5.18;;;25.00;93.10;;;;;;5033041;28;20477;-76
2021/07/08 12:42:21;;;;;;;5.03;4.47;;;25.00;92.30;;;;;;5032776;28;20101;-73
2021/07/08 12:44:49;;;;;;;5.65;4.40;;;25.10;92.40;;;;;;5032889;28;20030;-73
2021/07/08 12:47:15;;;;;;;5.72;4.28;;;25.30;92.60;;;;;;5032624;28;20033;-74
2021/07/08 12:49:41;;;;;;;4.50;4.10;;;25.40;92.60;;;;;;5032697;28;20416;-73
2021/07/08 12:52:10;;;;;;;4.50;3.72;;;25.40;92.50;;;;;;5032490;28;20380;-74